Time;durP1;ratioP1;P1;durP2;ratioP2;P2;SDS_P1;SDS_P2;PMS_P1;PMS_P2;Temp;Humidity;BMP_temperature;BMP_pressure;BME280_temperature;BME280_humidity;BME280_pressure;Samples;Min_cycle;Max_cycle;Signal;HPM_P1;HPM_P2
2023/05/22 00:01:58;;;;;;;28.95;18.63;;;16.30;99.90;;;;;;5000569;28;20053;-82
2023/05/22 00:04:45;;;;;;;36.38;19.20;;;16.20;99.90;;;;;;4998025;28;20170;-82
2023/05/22 00:07:32;;;;;;;35.58;19.10;;;16.20;99.90;;;;;;5014853;28;20062;-82
2023/05/22 00:10:18;;;;;;;32.53;19.50;;;16.30;99.90;;;;;;4997670;28;20045;-83
2023/05/22 00:13:04;;;;;;;31.35;19.85;;;16.20;99.90;;;;;;5013904;28;20050;-84
2023/05/22 00:15:50;;;;;;;35.95;19.23;;;16.30;99.90;;;;;;5013018;28;20093;-85
2023/05/22 00:18:37;;;;;;;34.22;18.92;;;16.30;99.90;;;;;;4996714;28;20057;-85
2023/05/22 00:21:23;;;;;;;29.65;18.15;;;16.30;99.90;;;;;;5013375;28;20116;-82
2023/05/22 00:24:10;;;;;;;33.38;19.05;;;16.30;99.90;;;;;;4995067;28;20050;-84
2023/05/22 00:26:56;;;;;;;35.10;20.27;;;16.20;99.90;;;;;;5012778;28;20068;-84
2023/05/22 00:29:42;;;;;;;38.00;18.92;;;16.20;99.90;;;;;;4981773;28;20053;-83
2023/05/22 00:32:29;;;;;;;34.30;19.00;;;16.20;99.90;;;;;;4982419;28;20510;-82
2023/05/22 00:35:15;;;;;;;30.85;18.90;;;16.30;99.90;;;;;;5011145;28;20052;-84
2023/05/22 00:38:04;;;;;;;33.45;19.42;;;16.30;99.90;;;;;;4995564;28;20045;-82
2023/05/22 00:40:50;;;;;;;33.70;19.92;;;16.30;99.90;;;;;;4980716;28;20092;-83
2023/05/22 00:43:38;;;;;;;32.90;19.70;;;16.30;99.90;;;;;;5012888;28;20049;-81
2023/05/22 00:46:24;;;;;;;32.75;20.92;;;16.30;99.90;;;;;;4982569;28;20050;-81
2023/05/22 00:49:10;;;;;;;33.08;21.55;;;16.30;99.90;;;;;;5012452;28;20053;-81
2023/05/22 00:51:56;;;;;;;32.45;19.30;;;16.30;99.90;;;;;;5010838;28;20050;-82
2023/05/22 00:54:43;;;;;;;28.70;20.17;;;16.30;99.90;;;;;;5011437;28;20050;-80
2023/05/22 00:57:30;;;;;;;35.38;21.17;;;16.30;99.90;;;;;;5011695;28;20066;-80
2023/05/22 01:00:16;;;;;;;37.20;22.08;;;16.30;99.90;;;;;;5011938;28;20057;-83
2023/05/22 01:03:06;;;;;;;36.38;20.88;;;16.30;99.90;;;;;;4993609;28;20100;-81
2023/05/22 01:05:52;;;;;;;38.05;21.52;;;16.30;99.90;;;;;;5003972;28;20054;-82
2023/05/22 01:08:40;;;;;;;38.45;21.25;;;16.30;99.90;;;;;;5012264;28;20103;-81
2023/05/22 01:11:44;;;;;;;32.72;22.30;;;16.30;99.90;;;;;;4994235;28;20103;-82
2023/05/22 01:14:35;;;;;;;35.00;21.63;;;16.30;99.90;;;;;;5011427;28;20058;-84
2023/05/22 01:17:46;;;;;;;40.53;23.67;;;16.30;99.90;;;;;;4994784;28;20050;-84
2023/05/22 01:20:43;;;;;;;33.42;21.48;;;16.20;99.90;;;;;;4981058;28;20053;-82
2023/05/22 01:23:42;;;;;;;37.45;21.27;;;16.20;99.90;;;;;;4994405;28;20053;-82
2023/05/22 01:26:40;;;;;;;35.35;21.50;;;16.20;99.90;;;;;;4994193;28;20054;-82
2023/05/22 01:29:45;;;;;;;33.83;20.35;;;16.20;99.90;;;;;;4993297;28;20058;-83
2023/05/22 01:32:35;;;;;;;37.38;22.80;;;16.20;99.90;;;;;;4994097;28;20057;-82
2023/05/22 01:35:22;;;;;;;38.63;22.15;;;16.10;99.90;;;;;;5011429;28;20064;-81
2023/05/22 01:38:10;;;;;;;37.92;25.60;;;16.10;99.90;;;;;;5010220;28;20080;-82
2023/05/22 01:40:57;;;;;;;35.38;22.95;;;16.10;99.90;;;;;;5012226;28;20152;-84
2023/05/22 01:43:45;;;;;;;39.20;23.73;;;16.10;99.90;;;;;;4992735;28;20497;-82
2023/05/22 01:46:31;;;;;;;35.45;23.38;;;16.10;99.90;;;;;;4993983;28;20101;-83
2023/05/22 01:49:17;;;;;;;36.67;22.73;;;16.20;99.90;;;;;;5010633;28;20059;-85
2023/05/22 01:52:11;;;;;;;34.83;23.48;;;16.20;99.90;;;;;;5011399;28;20059;-83
2023/05/22 01:55:03;;;;;;;38.97;24.70;;;16.20;99.90;;;;;;5011878;28;20053;-83
2023/05/22 01:58:07;;;;;;;41.67;24.13;;;16.20;99.90;;;;;;5002483;28;20061;-83
2023/05/22 02:00:56;;;;;;;32.38;21.70;;;16.20;99.90;;;;;;5010720;28;20089;-83
2023/05/22 02:03:45;;;;;;;36.92;22.65;;;16.10;99.90;;;;;;4996576;28;20054;-82
2023/05/22 02:06:32;;;;;;;36.25;22.80;;;16.20;99.90;;;;;;5010867;28;20064;-83
2023/05/22 02:09:20;;;;;;;37.42;23.50;;;16.20;99.90;;;;;;4993229;28;20067;-82
2023/05/22 02:12:07;;;;;;;37.85;22.10;;;16.20;99.90;;;;;;5011176;28;20049;-82
2023/05/22 02:14:54;;;;;;;43.63;24.05;;;16.20;99.90;;;;;;4994370;28;20053;-82
2023/05/22 02:17:40;;;;;;;40.15;20.98;;;16.10;99.90;;;;;;5011183;28;20046;-83
2023/05/22 02:20:26;;;;;;;33.45;19.88;;;16.10;99.90;;;;;;4994274;28;20065;-83
2023/05/22 02:23:12;;;;;;;36.70;20.38;;;16.10;99.90;;;;;;5010492;28;20506;-84
2023/05/22 02:25:58;;;;;;;47.10;21.88;;;16.00;99.90;;;;;;4993209;28;20096;-83
2023/05/22 02:28:44;;;;;;;39.90;21.45;;;15.90;99.90;;;;;;5011291;28;20080;-83
2023/05/22 02:31:30;;;;;;;44.38;19.60;;;15.80;99.90;;;;;;5010333;28;20045;-83
2023/05/22 02:34:16;;;;;;;42.25;22.13;;;15.80;99.90;;;;;;5010834;28;20489;-83
2023/05/22 02:37:03;;;;;;;35.72;20.65;;;15.80;99.90;;;;;;5010536;28;20607;-83
2023/05/22 02:39:49;;;;;;;34.15;20.15;;;15.80;99.90;;;;;;5009557;28;20795;-83
2023/05/22 02:42:35;;;;;;;44.45;23.20;;;15.80;99.90;;;;;;4992664;28;20053;-87
2023/05/22 02:45:21;;;;;;;39.95;19.95;;;15.70;99.90;;;;;;4992642;28;20069;-82
2023/05/22 02:48:07;;;;;;;48.22;25.20;;;15.70;99.90;;;;;;4992808;28;20049;-86
2023/05/22 02:50:54;;;;;;;47.88;24.35;;;15.80;99.90;;;;;;5009457;28;20143;-83
2023/05/22 02:53:40;;;;;;;47.35;26.05;;;15.80;99.90;;;;;;4992879;28;20141;-86
2023/05/22 02:56:27;;;;;;;49.40;26.63;;;15.80;99.90;;;;;;4991037;28;20056;-84
2023/05/22 02:59:13;;;;;;;45.65;25.92;;;15.80;99.90;;;;;;4979913;28;20060;-86
2023/05/22 03:02:00;;;;;;;47.65;27.50;;;15.90;99.90;;;;;;4993005;28;20131;-86
2023/05/22 03:04:46;;;;;;;41.75;26.10;;;15.90;99.90;;;;;;5013073;28;20053;-87
2023/05/22 03:07:33;;;;;;;48.00;24.27;;;15.90;99.90;;;;;;5014598;28;20065;-86
2023/05/22 03:10:19;;;;;;;40.00;23.08;;;15.90;99.90;;;;;;5014210;28;20127;-84
2023/05/22 03:13:05;;;;;;;41.65;22.52;;;15.90;99.90;;;;;;4996957;28;20053;-86
2023/05/22 03:15:51;;;;;;;48.65;24.30;;;15.90;99.90;;;;;;5014318;28;20156;-82
2023/05/22 03:18:37;;;;;;;46.38;24.60;;;15.90;99.90;;;;;;5013415;28;20518;-85
2023/05/22 03:21:23;;;;;;;45.38;24.83;;;15.90;99.90;;;;;;4999552;28;20509;-86
2023/05/22 03:24:12;;;;;;;43.88;27.08;;;15.90;99.90;;;;;;5000064;28;20046;-85
2023/05/22 03:26:59;;;;;;;41.33;23.65;;;16.00;99.90;;;;;;4996616;28;20105;-84
2023/05/22 03:29:45;;;;;;;35.53;22.77;;;16.00;99.90;;;;;;5013020;28;20156;-85
2023/05/22 03:32:31;;;;;;;35.65;22.23;;;16.00;99.90;;;;;;5013279;28;20184;-84
2023/05/22 03:35:18;;;;;;;35.33;22.25;;;16.00;99.90;;;;;;4995845;28;20081;-85
2023/05/22 03:38:04;;;;;;;36.08;21.33;;;16.10;99.90;;;;;;4994921;28;20104;-85
2023/05/22 03:40:50;;;;;;;34.30;20.45;;;16.10;99.90;;;;;;4996642;28;20057;-84
2023/05/22 03:43:36;;;;;;;33.15;19.85;;;16.10;99.90;;;;;;4999772;28;20438;-85
2023/05/22 03:46:22;;;;;;;37.65;20.52;;;16.10;99.90;;;;;;5013239;28;20058;-85
2023/05/22 03:49:08;;;;;;;29.52;19.90;;;16.10;99.90;;;;;;4995135;28;20521;-82
2023/05/22 03:51:54;;;;;;;29.13;18.83;;;16.10;99.90;;;;;;5013434;28;20107;-84
2023/05/22 03:54:42;;;;;;;31.58;19.73;;;16.20;99.90;;;;;;5012318;28;20064;-85
2023/05/22 03:57:28;;;;;;;38.10;19.85;;;16.20;99.90;;;;;;5012181;28;20116;-85
2023/05/22 04:00:15;;;;;;;30.33;18.30;;;16.20;99.90;;;;;;4996039;28;20050;-84
2023/05/22 04:03:02;;;;;;;33.92;19.02;;;16.20;99.90;;;;;;4996256;28;20046;-85
2023/05/22 04:05:48;;;;;;;32.67;19.48;;;16.20;99.90;;;;;;4996302;28;20547;-83
2023/05/22 04:08:34;;;;;;;29.77;17.13;;;16.20;99.90;;;;;;5013060;28;20050;-82
2023/05/22 04:11:21;;;;;;;38.65;17.40;;;16.20;99.90;;;;;;4996541;28;20054;-83
2023/05/22 04:14:07;;;;;;;33.20;16.45;;;16.20;99.90;;;;;;5012441;28;20058;-82
2023/05/22 04:16:54;;;;;;;33.20;14.23;;;16.20;99.90;;;;;;5013367;28;20057;-82
2023/05/22 04:19:40;;;;;;;26.02;11.95;;;16.20;99.90;;;;;;5013111;28;20681;-82
2023/05/22 04:22:26;;;;;;;23.75;11.15;;;16.20;99.90;;;;;;5012958;28;20056;-83
2023/05/22 04:25:12;;;;;;;27.50;11.70;;;16.10;99.90;;;;;;4995081;28;20058;-83
2023/05/22 04:28:01;;;;;;;27.13;10.98;;;16.10;99.90;;;;;;5013421;28;20089;-82
2023/05/22 04:30:48;;;;;;;24.92;10.27;;;16.10;99.90;;;;;;5012529;28;20129;-83
2023/05/22 04:33:35;;;;;;;22.80;9.45;;;16.00;99.90;;;;;;5012159;28;20058;-82
2023/05/22 04:36:24;;;;;;;29.70;11.60;;;16.10;99.90;;;;;;4994255;28;20069;-84
2023/05/22 04:39:12;;;;;;;37.10;12.45;;;16.10;99.90;;;;;;5006212;28;20108;-84
2023/05/22 04:42:04;;;;;;;34.83;10.88;;;16.10;99.90;;;;;;4994045;28;20598;-82
2023/05/22 04:44:56;;;;;;;27.00;9.93;;;16.00;99.90;;;;;;4995543;28;20064;-85
2023/05/22 04:47:43;;;;;;;29.27;9.80;;;16.10;99.90;;;;;;4994497;28;20061;-84
2023/05/22 04:50:31;;;;;;;35.50;10.63;;;16.00;99.90;;;;;;5012286;28;20065;-82
2023/05/22 04:53:17;;;;;;;30.25;10.43;;;16.00;99.90;;;;;;4994702;28;20148;-83
2023/05/22 04:56:03;;;;;;;32.47;9.65;;;16.00;99.90;;;;;;4998366;28;20046;-83
2023/05/22 04:58:50;;;;;;;27.58;9.80;;;16.00;99.90;;;;;;5011949;28;20050;-83
2023/05/22 05:01:36;;;;;;;27.58;9.70;;;16.00;99.90;;;;;;4994234;28;20046;-84
2023/05/22 05:04:22;;;;;;;32.90;9.45;;;15.90;99.90;;;;;;4980217;28;20156;-86
2023/05/22 05:07:08;;;;;;;27.10;9.20;;;16.00;99.90;;;;;;4989115;28;20193;-83
2023/05/22 05:09:54;;;;;;;31.33;9.63;;;15.90;99.90;;;;;;4995318;28;20062;-83
2023/05/22 05:12:40;;;;;;;23.90;9.27;;;15.90;99.90;;;;;;5018951;28;20525;-85
2023/05/22 05:15:26;;;;;;;21.98;9.25;;;16.00;99.90;;;;;;4998830;28;20057;-83
2023/05/22 05:18:12;;;;;;;24.77;8.57;;;16.00;99.90;;;;;;5016469;28;20058;-86
2023/05/22 05:20:59;;;;;;;29.88;10.13;;;16.00;99.90;;;;;;4992221;28;20056;-85
2023/05/22 05:23:45;;;;;;;43.22;10.35;;;16.00;99.90;;;;;;4994835;28;20050;-84
2023/05/22 05:26:31;;;;;;;26.55;8.70;;;16.10;99.90;;;;;;4993935;28;20153;-86
2023/05/22 05:29:18;;;;;;;26.88;8.80;;;16.10;99.90;;;;;;4981208;28;20398;-85
2023/05/22 05:32:04;;;;;;;23.05;8.75;;;16.10;99.90;;;;;;5010808;28;20050;-82
2023/05/22 05:34:51;;;;;;;29.65;9.57;;;16.20;99.90;;;;;;5008920;28;20092;-82
2023/05/22 05:37:40;;;;;;;24.98;9.27;;;16.20;99.90;;;;;;5011310;28;20049;-84
2023/05/22 05:40:26;;;;;;;30.85;10.60;;;16.20;99.90;;;;;;5010397;28;20082;-83
2023/05/22 05:43:15;;;;;;;46.38;11.60;;;16.20;99.90;;;;;;4980822;28;20053;-84
2023/05/22 05:46:01;;;;;;;31.38;9.95;;;16.10;99.90;;;;;;4992665;28;20098;-84
2023/05/22 05:48:47;;;;;;;39.92;11.05;;;16.20;99.90;;;;;;4996443;28;20045;-83
2023/05/22 05:51:33;;;;;;;51.80;12.43;;;16.20;99.90;;;;;;5010601;28;20134;-85
2023/05/22 05:54:20;;;;;;;49.10;13.35;;;16.20;99.90;;;;;;5009413;28;20057;-80
2023/05/22 05:57:06;;;;;;;49.30;13.18;;;16.20;99.90;;;;;;4986121;28;20057;-81
2023/05/22 05:59:52;;;;;;;57.33;13.85;;;16.20;99.90;;;;;;4993241;28;20050;-85
2023/05/22 06:02:38;;;;;;;51.78;12.52;;;16.20;99.90;;;;;;4992883;28;20053;-83
2023/05/22 06:05:25;;;;;;;50.28;12.50;;;16.10;99.90;;;;;;4994178;28;20508;-86
2023/05/22 06:08:12;;;;;;;45.05;11.35;;;16.00;99.90;;;;;;5011903;28;20083;-81
2023/05/22 06:10:58;;;;;;;45.25;12.07;;;16.00;99.90;;;;;;4993968;28;20451;-83
2023/05/22 06:13:44;;;;;;;39.78;10.73;;;15.90;99.90;;;;;;4993549;28;20157;-81
2023/05/22 06:16:30;;;;;;;37.15;11.15;;;15.90;99.90;;;;;;4993383;28;20490;-84
2023/05/22 06:19:16;;;;;;;33.58;11.07;;;15.80;99.90;;;;;;4996922;28;20045;-82
2023/05/22 06:22:02;;;;;;;24.70;9.13;;;15.80;99.90;;;;;;4980461;28;20144;-86
2023/05/22 06:24:48;;;;;;;35.30;12.00;;;15.80;99.90;;;;;;4978569;28;20105;-85
2023/05/22 06:27:34;;;;;;;54.65;13.55;;;15.70;99.90;;;;;;4996432;28;20429;-84
2023/05/22 06:30:21;;;;;;;41.10;10.13;;;15.70;99.90;;;;;;4992763;28;20057;-87
2023/05/22 06:33:07;;;;;;;34.15;9.35;;;15.50;99.90;;;;;;5011480;28;20104;-89
2023/05/22 06:35:54;;;;;;;34.35;11.15;;;15.50;99.90;;;;;;4991845;28;20139;-83
2023/05/22 06:38:40;;;;;;;45.40;11.38;;;15.40;99.90;;;;;;4991117;28;20938;-83
2023/05/22 06:41:26;;;;;;;36.35;10.68;;;15.50;99.90;;;;;;4993190;28;20050;-85
2023/05/22 06:44:12;;;;;;;35.78;10.77;;;15.50;99.90;;;;;;5009799;28;20417;-83
2023/05/22 06:46:58;;;;;;;38.78;12.02;;;15.40;99.90;;;;;;4992994;28;20089;-82
2023/05/22 06:49:44;;;;;;;34.72;10.73;;;15.50;99.90;;;;;;5009256;28;20076;-83
2023/05/22 06:52:32;;;;;;;41.47;11.10;;;15.50;99.90;;;;;;5010437;28;20509;-84
2023/05/22 06:55:18;;;;;;;46.35;13.50;;;15.50;99.90;;;;;;4992641;28;20145;-84
2023/05/22 06:58:04;;;;;;;52.17;14.73;;;15.70;99.90;;;;;;4991967;28;20054;-83
2023/05/22 07:00:50;;;;;;;39.20;12.82;;;15.70;99.90;;;;;;5009142;28;20061;-81
2023/05/22 07:03:37;;;;;;;37.08;13.40;;;15.70;99.90;;;;;;4991269;28;20050;-83
2023/05/22 07:06:24;;;;;;;30.73;11.07;;;15.70;99.90;;;;;;4992954;28;20060;-82
2023/05/22 07:09:10;;;;;;;38.17;11.52;;;15.80;99.90;;;;;;4992780;28;20100;-81
2023/05/22 07:11:56;;;;;;;29.67;9.77;;;15.70;99.90;;;;;;4993184;28;20049;-82
2023/05/22 07:14:43;;;;;;;32.47;11.90;;;15.70;99.90;;;;;;4978456;28;20068;-85
2023/05/22 07:17:29;;;;;;;31.02;10.50;;;15.70;99.90;;;;;;4992124;28;20062;-85
2023/05/22 07:20:15;;;;;;;34.75;11.75;;;15.70;99.90;;;;;;4980894;28;20111;-85
2023/05/22 07:23:01;;;;;;;31.27;10.57;;;15.90;99.90;;;;;;5009896;28;20049;-85
2023/05/22 07:25:48;;;;;;;24.67;9.95;;;16.00;99.90;;;;;;5008984;28;20065;-85
2023/05/22 07:28:34;;;;;;;37.75;11.10;;;16.00;99.90;;;;;;4992672;28;20089;-85
2023/05/22 07:31:20;;;;;;;29.80;10.20;;;16.10;99.90;;;;;;4980617;28;20076;-85
2023/05/22 07:34:06;;;;;;;33.63;10.95;;;16.30;99.90;;;;;;4992397;28;20073;-85
2023/05/22 07:36:52;;;;;;;31.52;9.80;;;16.40;99.90;;;;;;4992521;28;20112;-85
2023/05/22 07:39:39;;;;;;;34.10;11.35;;;16.40;99.90;;;;;;4990713;28;20053;-83
2023/05/22 07:42:26;;;;;;;29.95;8.73;;;16.40;99.90;;;;;;5009243;28;20054;-84
2023/05/22 07:45:12;;;;;;;24.00;7.90;;;16.40;99.90;;;;;;5008996;28;20053;-85
2023/05/22 07:48:00;;;;;;;28.98;7.40;;;16.30;99.90;;;;;;5008575;28;20092;-86
2023/05/22 07:50:46;;;;;;;27.27;7.05;;;16.20;99.90;;;;;;5012255;28;20056;-84
2023/05/22 07:53:32;;;;;;;28.63;7.88;;;16.20;99.90;;;;;;5012069;28;20540;-83
2023/05/22 07:56:18;;;;;;;16.75;7.18;;;16.20;99.90;;;;;;4997814;28;20046;-83
2023/05/22 07:59:06;;;;;;;26.00;8.25;;;16.20;99.90;;;;;;5011261;28;20065;-82
2023/05/22 08:01:52;;;;;;;20.63;7.03;;;16.20;99.90;;;;;;4995099;28;20057;-84
2023/05/22 08:04:38;;;;;;;23.52;7.63;;;16.20;99.90;;;;;;5011841;28;20562;-84
2023/05/22 08:07:24;;;;;;;20.25;6.68;;;16.20;99.90;;;;;;5012169;28;20046;-84
2023/05/22 08:10:17;;;;;;;16.83;6.88;;;16.20;99.90;;;;;;5012674;28;20081;-84
2023/05/22 08:13:05;;;;;;;13.88;5.85;;;16.20;99.90;;;;;;5012506;28;20054;-84
2023/05/22 08:15:51;;;;;;;13.95;5.93;;;16.20;99.90;;;;;;5012739;28;20414;-82
2023/05/22 08:18:37;;;;;;;19.45;5.93;;;16.20;99.90;;;;;;5011829;28;20057;-85
2023/05/22 08:21:23;;;;;;;24.40;5.93;;;16.30;99.90;;;;;;5011499;28;20124;-85
2023/05/22 08:24:09;;;;;;;13.45;5.10;;;16.30;99.90;;;;;;5011957;28;20058;-82
2023/05/22 08:26:59;;;;;;;10.77;5.13;;;16.40;99.90;;;;;;5004482;28;20054;-84
2023/05/22 08:29:45;;;;;;;14.70;5.47;;;16.40;99.90;;;;;;5012379;28;20052;-86
2023/05/22 08:32:31;;;;;;;13.50;5.20;;;16.40;99.90;;;;;;4993414;28;20498;-82
2023/05/22 08:35:17;;;;;;;13.18;5.88;;;16.40;99.90;;;;;;5011068;28;20053;-83
2023/05/22 08:38:03;;;;;;;14.25;5.63;;;16.40;99.90;;;;;;5011304;28;20049;-85
2023/05/22 08:40:52;;;;;;;15.13;6.25;;;16.40;99.90;;;;;;4993433;28;20061;-84
2023/05/22 08:43:40;;;;;;;15.68;5.45;;;16.40;99.90;;;;;;5011407;28;20089;-82
2023/05/22 08:46:29;;;;;;;13.43;5.43;;;16.40;99.90;;;;;;4997255;28;20781;-85
2023/05/22 08:49:17;;;;;;;12.77;5.43;;;16.40;99.90;;;;;;4994587;28;20046;-85
2023/05/22 08:52:13;;;;;;;18.17;5.30;;;16.30;99.90;;;;;;4994646;28;20061;-81
2023/05/22 08:55:03;;;;;;;20.23;6.85;;;16.40;99.90;;;;;;4994020;28;20508;-83
2023/05/22 08:57:51;;;;;;;8.98;4.68;;;16.40;99.90;;;;;;5013018;28;20057;-83
2023/05/22 09:00:37;;;;;;;11.50;5.10;;;16.50;99.90;;;;;;5010243;28;20171;-85
2023/05/22 09:03:27;;;;;;;10.07;5.57;;;16.50;99.90;;;;;;5011458;28;20494;-85
2023/05/22 09:06:13;;;;;;;10.38;4.82;;;16.50;99.90;;;;;;5011607;28;20054;-84
2023/05/22 09:09:00;;;;;;;12.52;6.38;;;16.50;99.90;;;;;;4992535;28;20054;-85
2023/05/22 09:11:46;;;;;;;9.45;5.70;;;16.50;99.90;;;;;;5011497;28;20046;-86
2023/05/22 09:14:41;;;;;;;14.90;6.03;;;16.50;99.90;;;;;;5011400;28;20069;-85
2023/05/22 09:17:27;;;;;;;19.98;7.05;;;16.50;99.90;;;;;;5011015;28;20092;-85
2023/05/22 09:20:14;;;;;;;16.10;6.18;;;16.60;99.90;;;;;;5011150;28;20050;-84
2023/05/22 09:23:01;;;;;;;10.57;6.53;;;16.70;99.90;;;;;;5011792;28;20140;-86
2023/05/22 09:25:47;;;;;;;11.15;6.30;;;16.70;99.90;;;;;;5011023;28;20050;-85
2023/05/22 09:28:34;;;;;;;10.48;6.05;;;16.90;99.90;;;;;;5010371;28;20061;-83
2023/05/22 09:31:20;;;;;;;11.20;6.32;;;17.00;99.90;;;;;;4993220;28;20133;-86
2023/05/22 09:34:09;;;;;;;12.02;6.40;;;17.10;99.90;;;;;;4992883;28;20068;-85
2023/05/22 09:37:04;;;;;;;11.65;5.97;;;17.20;99.90;;;;;;4993288;28;20483;-86
2023/05/22 09:39:53;;;;;;;11.70;6.30;;;17.30;99.90;;;;;;4992563;28;20057;-83
2023/05/22 09:42:45;;;;;;;15.57;6.75;;;17.40;99.90;;;;;;4997625;28;20057;-87
2023/05/22 09:45:34;;;;;;;13.02;6.97;;;17.60;99.90;;;;;;4979929;28;20088;-85
2023/05/22 09:48:20;;;;;;;10.80;6.95;;;17.80;99.90;;;;;;5009764;28;20056;-87
2023/05/22 09:51:09;;;;;;;17.15;7.43;;;18.00;99.90;;;;;;5008714;28;20406;-85
2023/05/22 09:54:02;;;;;;;19.85;7.50;;;18.10;99.90;;;;;;5009574;28;20058;-85
2023/05/22 09:56:49;;;;;;;19.40;7.22;;;18.10;99.90;;;;;;4992678;28;20837;-85
2023/05/22 09:59:39;;;;;;;15.32;7.13;;;18.30;99.90;;;;;;5011106;28;20048;-87
2023/05/22 10:02:26;;;;;;;16.92;7.80;;;18.30;99.90;;;;;;5011299;28;20100;-84
2023/05/22 10:05:20;;;;;;;15.82;7.63;;;18.30;99.90;;;;;;4992546;28;20084;-87
2023/05/22 10:08:42;;;;;;;17.55;7.22;;;18.40;99.90;;;;;;5010137;28;20060;-87
2023/05/22 10:11:30;;;;;;;13.88;7.35;;;18.30;99.90;;;;;;4956636;28;20141;-84
2023/05/22 10:14:16;;;;;;;17.23;8.00;;;18.30;99.90;;;;;;4990472;28;20054;-86
2023/05/22 10:17:05;;;;;;;16.67;8.40;;;18.40;99.90;;;;;;5004320;28;20060;-86
2023/05/22 10:19:54;;;;;;;16.90;8.05;;;18.30;99.90;;;;;;5009645;28;20498;-85
2023/05/22 10:22:41;;;;;;;16.33;8.23;;;18.40;99.90;;;;;;5009776;28;20050;-85
2023/05/22 10:25:27;;;;;;;17.17;8.68;;;18.50;99.90;;;;;;5010444;28;20050;-83
2023/05/22 10:28:22;;;;;;;20.35;8.52;;;18.40;99.90;;;;;;5010711;28;20050;-81
2023/05/22 10:31:13;;;;;;;;;;;18.40;99.90;;;;;;4998252;28;20128;-81
2023/05/22 10:34:04;;;;;;;19.85;9.10;;;18.50;99.90;;;;;;5000085;28;19989;-85
2023/05/22 10:37:16;;;;;;;19.83;9.45;;;18.80;99.90;;;;;;4995570;28;20561;-85
2023/05/22 10:40:08;;;;;;;23.13;9.88;;;18.90;99.90;;;;;;5009474;28;20406;-84
2023/05/22 10:43:02;;;;;;;25.20;8.85;;;19.10;99.90;;;;;;4980384;28;20143;-86
2023/05/22 10:46:00;;;;;;;20.60;9.35;;;19.20;99.90;;;;;;4991671;28;20071;-85
2023/05/22 10:48:50;;;;;;;18.20;9.57;;;19.30;99.90;;;;;;4991585;28;20470;-88
2023/05/22 10:51:39;;;;;;;24.45;10.50;;;19.60;99.90;;;;;;4992778;28;20430;-85
2023/05/22 10:54:39;;;;;;;22.45;10.48;;;20.00;99.90;;;;;;5009415;28;20053;-88
2023/05/22 10:57:25;;;;;;;24.42;9.02;;;20.50;99.90;;;;;;5009907;28;20065;-87
2023/05/22 11:00:14;;;;;;;21.95;8.85;;;21.20;99.90;;;;;;4992051;28;20096;-86
2023/05/22 11:03:07;;;;;;;16.75;7.80;;;21.80;99.90;;;;;;5009207;28;20064;-82
2023/05/22 11:05:53;;;;;;;14.68;7.70;;;21.80;99.90;;;;;;4990724;28;20525;-86
2023/05/22 11:08:39;;;;;;;20.77;9.70;;;21.50;99.90;;;;;;5008663;28;20093;-83
2023/05/22 11:11:26;;;;;;;19.98;10.15;;;21.40;99.90;;;;;;5010137;28;20062;-89
2023/05/22 11:14:17;;;;;;;24.70;9.32;;;21.30;99.90;;;;;;5010054;28;20115;-87
2023/05/22 11:17:05;;;;;;;23.67;8.77;;;21.30;99.90;;;;;;5009816;28;20080;-86
2023/05/22 11:20:06;;;;;;;19.58;9.77;;;21.30;99.90;;;;;;4991953;28;20054;-85
2023/05/22 11:22:58;;;;;;;22.15;8.60;;;21.40;99.90;;;;;;5009281;28;20057;-87
2023/05/22 11:25:44;;;;;;;20.63;8.30;;;21.20;99.90;;;;;;4981809;28;20062;-82
2023/05/22 11:28:30;;;;;;;24.13;9.75;;;21.00;99.90;;;;;;4997485;28;20042;-83
2023/05/22 11:31:21;;;;;;;22.25;9.45;;;20.90;99.90;;;;;;5014312;28;20053;-82
2023/05/22 11:34:08;;;;;;;21.80;8.70;;;21.10;99.90;;;;;;4982036;28;20049;-82
2023/05/22 11:36:58;;;;;;;23.70;9.18;;;21.10;99.90;;;;;;4996115;28;20053;-87
2023/05/22 11:39:55;;;;;;;24.58;9.13;;;21.20;99.90;;;;;;4995674;28;20050;-85
2023/05/22 11:42:41;;;;;;;21.40;9.40;;;21.30;99.90;;;;;;5013022;28;20181;-88
2023/05/22 11:45:27;;;;;;;27.33;9.70;;;21.60;99.90;;;;;;4997211;28;20057;-88
2023/05/22 11:48:13;;;;;;;28.63;8.82;;;21.90;99.90;;;;;;5012084;28;20058;-87
2023/05/22 11:50:59;;;;;;;28.67;10.27;;;22.10;99.90;;;;;;5012461;28;20502;-81
2023/05/22 11:53:46;;;;;;;18.55;7.95;;;22.10;99.90;;;;;;5013824;28;20498;-86
2023/05/22 11:56:34;;;;;;;21.35;8.90;;;22.20;99.90;;;;;;5014125;28;20081;-86
2023/05/22 11:59:24;;;;;;;21.98;8.75;;;22.50;99.90;;;;;;5015065;28;20061;-88
2023/05/22 12:02:11;;;;;;;17.55;8.90;;;22.70;99.90;;;;;;4988610;28;20095;-90
2023/05/22 12:04:58;;;;;;;17.80;8.32;;;22.60;99.90;;;;;;5011806;28;20065;-89
2023/05/22 12:07:44;;;;;;;19.58;9.57;;;22.60;99.90;;;;;;5012143;28;20061;-90
2023/05/22 12:10:30;;;;;;;13.88;8.10;;;22.40;99.90;;;;;;5011806;28;20049;-86
2023/05/22 12:13:23;;;;;;;13.82;7.68;;;22.00;99.90;;;;;;4995209;28;20414;-87
2023/05/22 12:16:35;;;;;;;16.10;8.70;;;22.00;99.90;;;;;;4994820;28;20045;-87
2023/05/22 12:19:21;;;;;;;23.88;9.35;;;22.00;99.90;;;;;;4995264;28;20088;-86
2023/05/22 12:22:11;;;;;;;20.10;8.55;;;22.10;99.90;;;;;;5011358;28;20100;-84
2023/05/22 12:24:57;;;;;;;20.75;8.40;;;22.30;99.90;;;;;;5004907;28;20056;-85
2023/05/22 12:27:46;;;;;;;15.55;8.30;;;22.60;99.90;;;;;;5011183;28;20080;-84
2023/05/22 12:30:40;;;;;;;20.40;8.07;;;23.00;99.90;;;;;;5012288;28;20553;-86
2023/05/22 12:33:27;;;;;;;19.83;8.23;;;23.40;99.90;;;;;;4994046;28;20132;-89
2023/05/22 12:36:13;;;;;;;18.88;7.85;;;23.40;99.90;;;;;;5010477;28;20760;-89
2023/05/22 12:38:59;;;;;;;18.20;7.82;;;23.70;99.90;;;;;;4994787;28;20050;-85
2023/05/22 12:41:45;;;;;;;15.93;8.45;;;23.90;99.90;;;;;;5011977;28;20053;-88
2023/05/22 12:44:32;;;;;;;14.88;8.18;;;23.60;99.90;;;;;;4995177;28;20053;-86
2023/05/22 12:47:18;;;;;;;16.92;7.88;;;23.90;99.90;;;;;;5011393;28;20143;-88
2023/05/22 12:50:04;;;;;;;17.92;7.97;;;24.10;99.90;;;;;;4981521;28;20494;-86
2023/05/22 12:52:50;;;;;;;14.77;8.10;;;24.30;99.40;;;;;;5010042;28;20054;-86
2023/05/22 12:55:37;;;;;;;17.75;7.32;;;24.80;99.40;;;;;;5009362;28;20125;-87
2023/05/22 12:58:23;;;;;;;14.75;7.13;;;25.00;98.90;;;;;;5011444;28;20557;-85
2023/05/22 13:01:09;;;;;;;15.82;8.07;;;25.20;98.70;;;;;;4994348;28;20093;-88
2023/05/22 13:03:55;;;;;;;23.17;7.65;;;25.30;98.40;;;;;;4994262;28;20061;-89
2023/05/22 13:06:41;;;;;;;16.73;7.57;;;25.60;97.80;;;;;;5012617;28;20046;-87
2023/05/22 13:09:28;;;;;;;14.35;7.25;;;25.80;96.80;;;;;;4993837;28;20061;-84
2023/05/22 13:12:14;;;;;;;15.48;7.75;;;25.70;96.30;;;;;;5012745;28;20052;-83
2023/05/22 13:15:03;;;;;;;15.50;7.70;;;25.50;96.50;;;;;;5010908;28;20149;-84
2023/05/22 13:17:49;;;;;;;13.77;7.72;;;25.80;95.90;;;;;;5011970;28;20425;-82
2023/05/22 13:20:37;;;;;;;15.77;6.88;;;25.90;96.40;;;;;;4993998;28;20050;-83
2023/05/22 13:23:23;;;;;;;20.27;8.07;;;25.90;96.10;;;;;;5011023;28;20080;-83
2023/05/22 13:26:10;;;;;;;25.25;9.30;;;26.10;95.60;;;;;;4993610;28;20116;-81
2023/05/22 13:28:57;;;;;;;25.98;8.88;;;26.30;95.40;;;;;;4992636;28;20112;-85
2023/05/22 13:31:43;;;;;;;18.05;8.30;;;26.20;95.10;;;;;;5011015;28;20065;-82
2023/05/22 13:34:29;;;;;;;17.38;7.40;;;26.20;94.50;;;;;;4979694;28;20096;-81
2023/05/22 13:37:15;;;;;;;15.60;7.60;;;26.50;94.80;;;;;;5010988;28;20058;-84
2023/05/22 13:40:01;;;;;;;15.40;8.07;;;26.80;94.20;;;;;;5010361;28;20053;-84
2023/05/22 13:42:47;;;;;;;19.20;7.90;;;26.60;93.70;;;;;;5010585;28;20460;-85
2023/05/22 13:45:33;;;;;;;14.98;7.55;;;26.30;93.80;;;;;;5010929;28;20490;-86
2023/05/22 13:48:19;;;;;;;17.98;8.20;;;26.70;93.80;;;;;;4993093;28;20050;-83
2023/05/22 13:51:05;;;;;;;21.73;8.02;;;26.80;93.30;;;;;;4992018;28;20057;-86
2023/05/22 13:53:51;;;;;;;17.73;7.35;;;27.10;93.00;;;;;;5009436;28;20053;-85
2023/05/22 13:56:40;;;;;;;15.57;7.25;;;27.20;92.30;;;;;;4996694;28;20140;-83
2023/05/22 13:59:28;;;;;;;22.08;7.93;;;27.20;92.50;;;;;;5007583;28;20050;-86
2023/05/22 14:02:14;;;;;;;16.63;6.95;;;27.60;92.30;;;;;;4992241;28;20065;-84
2023/05/22 14:05:01;;;;;;;18.50;8.02;;;27.80;91.90;;;;;;5007860;28;20046;-83
2023/05/22 14:07:47;;;;;;;18.67;8.88;;;27.90;91.70;;;;;;4992305;28;20132;-83
2023/05/22 14:10:37;;;;;;;17.15;6.93;;;27.90;91.00;;;;;;5010964;28;20056;-83
2023/05/22 14:13:23;;;;;;;14.75;7.07;;;28.30;91.20;;;;;;4979807;28;20061;-86
2023/05/22 14:16:09;;;;;;;16.02;7.60;;;28.10;90.40;;;;;;4987049;28;20058;-84
2023/05/22 14:18:59;;;;;;;17.00;7.38;;;28.10;90.20;;;;;;5010892;28;20514;-82